sensor_id;sensor_type;location;lat;lon;timestamp;pressure;altitude;pressure_sealevel;temperature;humidity
77975;BME280;67164;51.202;0.278;2024-01-10T00:02:12;102578.98;;;21.41;30.82
77975;BME280;67164;51.202;0.278;2024-01-10T00:04:38;102576.84;;;21.39;30.70
77975;BME280;67164;51.202;0.278;2024-01-10T00:07:04;102575.65;;;21.31;30.81
77975;BME280;67164;51.202;0.278;2024-01-10T00:09:29;102576.67;;;21.22;30.85
77975;BME280;67164;51.202;0.278;2024-01-10T00:11:55;102575.70;;;21.28;30.61
77975;BME280;67164;51.202;0.278;2024-01-10T00:14:21;102573.74;;;21.28;30.70
77975;BME280;67164;51.202;0.278;2024-01-10T00:16:47;102575.94;;;21.30;30.79
77975;BME280;67164;51.202;0.278;2024-01-10T00:19:12;102576.79;;;21.11;30.63
77975;BME280;67164;51.202;0.278;2024-01-10T00:21:38;102575.92;;;21.14;30.66
77975;BME280;67164;51.202;0.278;2024-01-10T00:24:05;102576.57;;;20.85;30.76
77975;BME280;67164;51.202;0.278;2024-01-10T00:26:30;102579.84;;;21.03;30.73
77975;BME280;67164;51.202;0.278;2024-01-10T00:28:56;102579.31;;;20.93;30.74
77975;BME280;67164;51.202;0.278;2024-01-10T00:31:22;102576.50;;;20.94;30.83
77975;BME280;67164;51.202;0.278;2024-01-10T00:33:47;102578.05;;;20.81;30.72
77975;BME280;67164;51.202;0.278;2024-01-10T00:36:13;102575.75;;;20.58;30.82
77975;BME280;67164;51.202;0.278;2024-01-10T00:38:40;102573.23;;;20.86;30.72
77975;BME280;67164;51.202;0.278;2024-01-10T00:41:05;102574.47;;;20.83;30.65
77975;BME280;67164;51.202;0.278;2024-01-10T00:43:31;102575.78;;;20.52;30.68
77975;BME280;67164;51.202;0.278;2024-01-10T00:45:56;102575.33;;;20.36;30.80
77975;BME280;67164;51.202;0.278;2024-01-10T00:48:22;102573.15;;;20.60;30.82
77975;BME280;67164;51.202;0.278;2024-01-10T00:50:48;102574.07;;;20.30;30.88
77975;BME280;67164;51.202;0.278;2024-01-10T00:53:14;102574.81;;;20.59;30.60
77975;BME280;67164;51.202;0.278;2024-01-10T00:55:39;102570.09;;;20.74;30.82
77975;BME280;67164;51.202;0.278;2024-01-10T00:58:05;102571.34;;;20.85;30.77
77975;BME280;67164;51.202;0.278;2024-01-10T01:00:32;102571.36;;;20.69;30.77
77975;BME280;67164;51.202;0.278;2024-01-10T01:02:57;102570.01;;;20.40;30.91
77975;BME280;67164;51.202;0.278;2024-01-10T01:05:22;102567.24;;;20.39;31.04
77975;BME280;67164;51.202;0.278;2024-01-10T01:07:48;102568.80;;;20.38;30.95
77975;BME280;67164;51.202;0.278;2024-01-10T01:10:14;102567.33;;;20.41;30.92
77975;BME280;67164;51.202;0.278;2024-01-10T01:12:40;102566.54;;;20.76;30.98
77975;BME280;67164;51.202;0.278;2024-01-10T01:15:07;102566.11;;;20.48;31.07
77975;BME280;67164;51.202;0.278;2024-01-10T01:17:31;102564.08;;;20.35;30.87
77975;BME280;67164;51.202;0.278;2024-01-10T01:19:57;102561.57;;;20.76;30.83
77975;BME280;67164;51.202;0.278;2024-01-10T01:22:23;102565.10;;;20.08;31.11
77975;BME280;67164;51.202;0.278;2024-01-10T01:24:49;102562.02;;;20.49;30.81
77975;BME280;67164;51.202;0.278;2024-01-10T01:27:15;102559.93;;;20.57;30.82
77975;BME280;67164;51.202;0.278;2024-01-10T01:29:41;102556.88;;;20.06;30.95
77975;BME280;67164;51.202;0.278;2024-01-10T01:32:06;102559.57;;;20.11;30.85
77975;BME280;67164;51.202;0.278;2024-01-10T01:34:32;102555.32;;;20.33;30.61
77975;BME280;67164;51.202;0.278;2024-01-10T01:36:58;102555.76;;;19.97;30.96
77975;BME280;67164;51.202;0.278;2024-01-10T01:39:24;102558.85;;;20.48;30.85
77975;BME280;67164;51.202;0.278;2024-01-10T01:41:50;102558.75;;;20.44;30.64
77975;BME280;67164;51.202;0.278;2024-01-10T01:44:16;102555.08;;;20.20;30.66
77975;BME280;67164;51.202;0.278;2024-01-10T01:46:41;102553.88;;;20.13;30.73
77975;BME280;67164;51.202;0.278;2024-01-10T01:49:07;102548.86;;;20.28;30.60
77975;BME280;67164;51.202;0.278;2024-01-10T01:51:34;102551.31;;;20.05;30.65
77975;BME280;67164;51.202;0.278;2024-01-10T01:53:59;102548.79;;;20.28;30.55
77975;BME280;67164;51.202;0.278;2024-01-10T01:56:25;102548.83;;;19.98;30.58
77975;BME280;67164;51.202;0.278;2024-01-10T01:58:51;102549.24;;;20.21;30.63
77975;BME280;67164;51.202;0.278;2024-01-10T02:01:17;102551.29;;;19.98;30.48
77975;BME280;67164;51.202;0.278;2024-01-10T02:03:42;102546.86;;;19.90;30.47
77975;BME280;67164;51.202;0.278;2024-01-10T02:06:08;102549.20;;;20.09;30.59
77975;BME280;67164;51.202;0.278;2024-01-10T02:08:33;102549.78;;;20.13;30.46
77975;BME280;67164;51.202;0.278;2024-01-10T02:10:59;102551.86;;;19.87;30.99
77975;BME280;67164;51.202;0.278;2024-01-10T02:13:24;102550.72;;;20.12;31.27
77975;BME280;67164;51.202;0.278;2024-01-10T02:15:51;102548.96;;;20.16;31.15
77975;BME280;67164;51.202;0.278;2024-01-10T02:18:16;102547.59;;;19.84;31.31
77975;BME280;67164;51.202;0.278;2024-01-10T02:20:43;102548.18;;;19.73;31.29
77975;BME280;67164;51.202;0.278;2024-01-10T02:23:08;102544.64;;;19.50;31.24
77975;BME280;67164;51.202;0.278;2024-01-10T02:25:34;102546.25;;;19.11;31.57
77975;BME280;67164;51.202;0.278;2024-01-10T02:27:59;102549.42;;;19.00;31.40
77975;BME280;67164;51.202;0.278;2024-01-10T02:30:25;102548.90;;;19.17;31.44
77975;BME280;67164;51.202;0.278;2024-01-10T02:32:51;102547.26;;;19.13;31.45
77975;BME280;67164;51.202;0.278;2024-01-10T02:35:17;102541.25;;;19.56;31.33
77975;BME280;67164;51.202;0.278;2024-01-10T02:37:43;102540.70;;;19.58;31.23
77975;BME280;67164;51.202;0.278;2024-01-10T02:40:09;102536.65;;;19.20;31.19
77975;BME280;67164;51.202;0.278;2024-01-10T02:42:35;102537.99;;;19.68;31.14
77975;BME280;67164;51.202;0.278;2024-01-10T02:45:00;102533.67;;;19.56;31.17
77975;BME280;67164;51.202;0.278;2024-01-10T02:47:26;102532.23;;;19.12;31.09
77975;BME280;67164;51.202;0.278;2024-01-10T02:49:52;102531.31;;;19.39;31.16
77975;BME280;67164;51.202;0.278;2024-01-10T02:52:18;102531.83;;;19.22;31.09
77975;BME280;67164;51.202;0.278;2024-01-10T02:54:43;102529.42;;;19.47;31.01
77975;BME280;67164;51.202;0.278;2024-01-10T02:57:09;102530.15;;;19.44;31.02
77975;BME280;67164;51.202;0.278;2024-01-10T02:59:35;102525.76;;;19.18;31.00
77975;BME280;67164;51.202;0.278;2024-01-10T03:02:01;102522.76;;;19.83;30.71
77975;BME280;67164;51.202;0.278;2024-01-10T03:04:27;102517.12;;;19.32;30.92
77975;BME280;67164;51.202;0.278;2024-01-10T03:06:52;102523.34;;;19.56;30.93
77975;BME280;67164;51.202;0.278;2024-01-10T03:09:18;102520.40;;;19.55;30.91
77975;BME280;67164;51.202;0.278;2024-01-10T03:11:44;102519.93;;;19.92;30.80
77975;BME280;67164;51.202;0.278;2024-01-10T03:14:11;102519.03;;;19.54;30.91
77975;BME280;67164;51.202;0.278;2024-01-10T03:16:36;102516.77;;;19.68;30.56
77975;BME280;67164;51.202;0.278;2024-01-10T03:19:02;102515.55;;;20.03;30.64
77975;BME280;67164;51.202;0.278;2024-01-10T03:21:27;102510.19;;;19.57;30.60
77975;BME280;67164;51.202;0.278;2024-01-10T03:23:55;102507.77;;;19.73;30.43
77975;BME280;67164;51.202;0.278;2024-01-10T03:26:19;102503.92;;;19.60;30.55
77975;BME280;67164;51.202;0.278;2024-01-10T03:28:45;102499.22;;;19.71;30.36
77975;BME280;67164;51.202;0.278;2024-01-10T03:31:11;102499.17;;;19.78;30.33
77975;BME280;67164;51.202;0.278;2024-01-10T03:33:36;102493.82;;;19.81;30.33
77975;BME280;67164;51.202;0.278;2024-01-10T03:36:03;102491.11;;;19.58;30.45
77975;BME280;67164;51.202;0.278;2024-01-10T03:38:28;102492.37;;;19.54;30.54
77975;BME280;67164;51.202;0.278;2024-01-10T03:40:54;102489.75;;;19.54;30.55
77975;BME280;67164;51.202;0.278;2024-01-10T03:43:19;102484.25;;;19.68;30.37
77975;BME280;67164;51.202;0.278;2024-01-10T03:45:45;102481.33;;;19.69;30.36
77975;BME280;67164;51.202;0.278;2024-01-10T03:48:11;102481.01;;;19.71;30.33
77975;BME280;67164;51.202;0.278;2024-01-10T03:50:37;102484.11;;;20.13;30.15
77975;BME280;67164;51.202;0.278;2024-01-10T03:53:03;102482.09;;;19.66;30.38
77975;BME280;67164;51.202;0.278;2024-01-10T03:55:29;102482.91;;;19.85;30.38
77975;BME280;67164;51.202;0.278;2024-01-10T03:57:54;102481.70;;;19.69;30.32
77975;BME280;67164;51.202;0.278;2024-01-10T04:00:20;102485.89;;;19.61;30.36
77975;BME280;67164;51.202;0.278;2024-01-10T04:02:46;102484.10;;;19.92;30.25
77975;BME280;67164;51.202;0.278;2024-01-10T04:05:12;102487.14;;;19.95;30.03
77975;BME280;67164;51.202;0.278;2024-01-10T04:07:40;102487.68;;;19.90;30.11
77975;BME280;67164;51.202;0.278;2024-01-10T04:10:04;102486.80;;;19.66;30.30
77975;BME280;67164;51.202;0.278;2024-01-10T04:12:29;102486.65;;;19.74;30.24
77975;BME280;67164;51.202;0.278;2024-01-10T04:14:55;102483.26;;;19.86;30.17
77975;BME280;67164;51.202;0.278;2024-01-10T04:17:21;102482.06;;;19.64;30.35
77975;BME280;67164;51.202;0.278;2024-01-10T04:19:47;102482.85;;;19.95;30.00
77975;BME280;67164;51.202;0.278;2024-01-10T04:22:13;102477.37;;;20.18;29.71
77975;BME280;67164;51.202;0.278;2024-01-10T04:24:38;102476.09;;;20.57;29.63
77975;BME280;67164;51.202;0.278;2024-01-10T04:27:04;102475.94;;;20.46;29.54
77975;BME280;67164;51.202;0.278;2024-01-10T04:29:30;102473.61;;;20.90;29.35
77975;BME280;67164;51.202;0.278;2024-01-10T04:31:56;102476.34;;;20.81;29.66
77975;BME280;67164;51.202;0.278;2024-01-10T04:34:22;102476.43;;;20.90;29.55
77975;BME280;67164;51.202;0.278;2024-01-10T04:36:47;102474.67;;;20.96;29.49
77975;BME280;67164;51.202;0.278;2024-01-10T04:39:13;102473.29;;;20.91;29.71
77975;BME280;67164;51.202;0.278;2024-01-10T04:41:39;102470.19;;;20.63;29.74
77975;BME280;67164;51.202;0.278;2024-01-10T04:44:05;102466.76;;;20.90;29.81
77975;BME280;67164;51.202;0.278;2024-01-10T04:46:31;102467.54;;;20.59;29.83
77975;BME280;67164;51.202;0.278;2024-01-10T04:48:57;102469.78;;;20.50;29.82
77975;BME280;67164;51.202;0.278;2024-01-10T04:51:23;102468.72;;;20.28;29.86
77975;BME280;67164;51.202;0.278;2024-01-10T04:53:48;102469.22;;;20.25;29.96
77975;BME280;67164;51.202;0.278;2024-01-10T04:56:14;102471.87;;;20.29;29.96
77975;BME280;67164;51.202;0.278;2024-01-10T04:58:40;102474.70;;;20.15;30.08
77975;BME280;67164;51.202;0.278;2024-01-10T05:01:06;102475.66;;;20.45;30.03
77975;BME280;67164;51.202;0.278;2024-01-10T05:03:32;102477.46;;;20.30;29.92
77975;BME280;67164;51.202;0.278;2024-01-10T05:05:57;102477.45;;;20.11;30.16
77975;BME280;67164;51.202;0.278;2024-01-10T05:08:23;102478.70;;;20.32;29.92
77975;BME280;67164;51.202;0.278;2024-01-10T05:10:49;102480.31;;;20.36;30.10
77975;BME280;67164;51.202;0.278;2024-01-10T05:13:15;102474.90;;;20.19;30.26
77975;BME280;67164;51.202;0.278;2024-01-10T05:15:41;102473.91;;;20.10;30.04
77975;BME280;67164;51.202;0.278;2024-01-10T05:18:07;102475.12;;;20.26;30.33
77975;BME280;67164;51.202;0.278;2024-01-10T05:20:32;102474.35;;;20.32;30.14
77975;BME280;67164;51.202;0.278;2024-01-10T05:22:58;102475.00;;;20.23;30.11
77975;BME280;67164;51.202;0.278;2024-01-10T05:25:24;102470.93;;;20.05;29.91
77975;BME280;67164;51.202;0.278;2024-01-10T05:27:50;102473.97;;;19.81;30.07
77975;BME280;67164;51.202;0.278;2024-01-10T05:30:16;102469.45;;;19.77;30.10
77975;BME280;67164;51.202;0.278;2024-01-10T05:32:43;102469.82;;;20.17;29.92
77975;BME280;67164;51.202;0.278;2024-01-10T05:35:08;102470.61;;;19.96;29.87
77975;BME280;67164;51.202;0.278;2024-01-10T05:37:33;102469.65;;;20.18;29.85
77975;BME280;67164;51.202;0.278;2024-01-10T05:39:59;102466.65;;;20.14;29.88
77975;BME280;67164;51.202;0.278;2024-01-10T05:42:25;102464.45;;;20.06;29.91
77975;BME280;67164;51.202;0.278;2024-01-10T05:44:51;102466.18;;;20.02;29.97
77975;BME280;67164;51.202;0.278;2024-01-10T05:47:17;102458.05;;;19.72;29.98
77975;BME280;67164;51.202;0.278;2024-01-10T05:49:42;102458.81;;;19.71;29.81
77975;BME280;67164;51.202;0.278;2024-01-10T05:52:08;102455.94;;;19.93;29.89
77975;BME280;67164;51.202;0.278;2024-01-10T05:54:34;102455.48;;;19.92;30.09
77975;BME280;67164;51.202;0.278;2024-01-10T05:57:00;102453.82;;;19.58;30.01
77975;BME280;67164;51.202;0.278;2024-01-10T05:59:26;102451.10;;;19.84;29.70
77975;BME280;67164;51.202;0.278;2024-01-10T06:01:51;102451.23;;;20.03;29.82
77975;BME280;67164;51.202;0.278;2024-01-10T06:04:16;102455.27;;;19.80;30.14
77975;BME280;67164;51.202;0.278;2024-01-10T06:06:42;102457.50;;;19.79;29.83
77975;BME280;67164;51.202;0.278;2024-01-10T06:09:08;102460.72;;;19.79;30.29
77975;BME280;67164;51.202;0.278;2024-01-10T06:11:34;102462.13;;;19.77;30.36
77975;BME280;67164;51.202;0.278;2024-01-10T06:14:00;102460.39;;;19.72;30.49
77975;BME280;67164;51.202;0.278;2024-01-10T06:16:26;102460.56;;;19.90;29.89
77975;BME280;67164;51.202;0.278;2024-01-10T06:18:51;102459.86;;;19.63;30.52
77975;BME280;67164;51.202;0.278;2024-01-10T06:21:17;102457.08;;;19.53;30.59
77975;BME280;67164;51.202;0.278;2024-01-10T06:23:43;102456.83;;;19.74;30.35
77975;BME280;67164;51.202;0.278;2024-01-10T06:26:09;102456.31;;;19.51;30.82
77975;BME280;67164;51.202;0.278;2024-01-10T06:28:35;102459.74;;;19.86;30.62
77975;BME280;67164;51.202;0.278;2024-01-10T06:31:01;102465.35;;;19.73;30.44
77975;BME280;67164;51.202;0.278;2024-01-10T06:33:27;102467.87;;;19.42;30.92
77975;BME280;67164;51.202;0.278;2024-01-10T06:35:52;102470.46;;;19.76;30.71
77975;BME280;67164;51.202;0.278;2024-01-10T06:38:18;102470.47;;;19.92;30.90
77975;BME280;67164;51.202;0.278;2024-01-10T06:40:44;102472.12;;;19.63;30.97
77975;BME280;67164;51.202;0.278;2024-01-10T06:43:10;102469.70;;;19.40;31.02
77975;BME280;67164;51.202;0.278;2024-01-10T06:45:35;102474.01;;;19.58;30.86
77975;BME280;67164;51.202;0.278;2024-01-10T06:48:01;102470.86;;;19.55;31.05
77975;BME280;67164;51.202;0.278;2024-01-10T06:50:27;102470.47;;;19.40;31.22
77975;BME280;67164;51.202;0.278;2024-01-10T06:52:53;102472.03;;;19.23;31.02
77975;BME280;67164;51.202;0.278;2024-01-10T06:55:19;102475.87;;;19.45;30.94
77975;BME280;67164;51.202;0.278;2024-01-10T06:57:45;102479.98;;;19.41;30.88
77975;BME280;67164;51.202;0.278;2024-01-10T07:00:12;102477.30;;;19.19;31.12
77975;BME280;67164;51.202;0.278;2024-01-10T07:02:37;102483.52;;;19.47;30.28
77975;BME280;67164;51.202;0.278;2024-01-10T07:05:05;102485.39;;;19.71;30.76
77975;BME280;67164;51.202;0.278;2024-01-10T07:07:28;102484.67;;;19.70;30.55
77975;BME280;67164;51.202;0.278;2024-01-10T07:09:54;102481.24;;;19.75;31.05
77975;BME280;67164;51.202;0.278;2024-01-10T07:12:20;102485.92;;;19.30;30.83
77975;BME280;67164;51.202;0.278;2024-01-10T07:14:46;102484.96;;;19.71;30.26
77975;BME280;67164;51.202;0.278;2024-01-10T07:17:11;102486.38;;;19.38;30.36
77975;BME280;67164;51.202;0.278;2024-01-10T07:19:37;102484.40;;;19.41;30.93
77975;BME280;67164;51.202;0.278;2024-01-10T07:22:04;102483.02;;;19.63;30.90
77975;BME280;67164;51.202;0.278;2024-01-10T07:24:29;102485.50;;;19.53;30.25
77975;BME280;67164;51.202;0.278;2024-01-10T07:26:57;102492.19;;;19.59;31.05
77975;BME280;67164;51.202;0.278;2024-01-10T07:29:21;102492.20;;;19.01;30.78
77975;BME280;67164;51.202;0.278;2024-01-10T07:31:46;102492.46;;;19.42;29.87
77975;BME280;67164;51.202;0.278;2024-01-10T07:34:12;102490.59;;;19.43;30.06
77975;BME280;67164;51.202;0.278;2024-01-10T07:36:42;102492.10;;;19.68;30.10
77975;BME280;67164;51.202;0.278;2024-01-10T07:39:06;102498.55;;;19.63;30.31
77975;BME280;67164;51.202;0.278;2024-01-10T07:41:30;102499.00;;;19.18;30.81
77975;BME280;67164;51.202;0.278;2024-01-10T07:43:56;102503.03;;;19.17;29.99
77975;BME280;67164;51.202;0.278;2024-01-10T07:46:21;102502.11;;;19.39;30.52
77975;BME280;67164;51.202;0.278;2024-01-10T07:48:47;102502.52;;;19.33;31.32
77975;BME280;67164;51.202;0.278;2024-01-10T07:51:13;102500.57;;;19.02;31.05
77975;BME280;67164;51.202;0.278;2024-01-10T07:53:39;102500.69;;;19.31;31.32
77975;BME280;67164;51.202;0.278;2024-01-10T07:56:05;102499.97;;;18.71;31.29
77975;BME280;67164;51.202;0.278;2024-01-10T07:58:31;102499.36;;;18.12;31.55
77975;BME280;67164;51.202;0.278;2024-01-10T08:00:57;102500.26;;;18.36;31.44
77975;BME280;67164;51.202;0.278;2024-01-10T08:03:22;102497.18;;;18.38;31.47
77975;BME280;67164;51.202;0.278;2024-01-10T08:05:48;102496.06;;;18.60;31.39
77975;BME280;67164;51.202;0.278;2024-01-10T08:08:14;102494.37;;;18.53;31.65
77975;BME280;67164;51.202;0.278;2024-01-10T08:10:40;102495.36;;;18.92;31.70
77975;BME280;67164;51.202;0.278;2024-01-10T08:13:05;102494.13;;;18.62;31.90
77975;BME280;67164;51.202;0.278;2024-01-10T08:15:31;102499.25;;;18.60;31.93
77975;BME280;67164;51.202;0.278;2024-01-10T08:17:57;102500.63;;;18.68;31.74
77975;BME280;67164;51.202;0.278;2024-01-10T08:20:22;102497.81;;;18.99;31.76
77975;BME280;67164;51.202;0.278;2024-01-10T08:22:48;102496.02;;;18.61;32.02
77975;BME280;67164;51.202;0.278;2024-01-10T08:25:14;102499.89;;;18.82;31.89
77975;BME280;67164;51.202;0.278;2024-01-10T08:27:39;102497.21;;;18.89;32.05
77975;BME280;67164;51.202;0.278;2024-01-10T08:30:06;102503.24;;;18.79;31.97
77975;BME280;67164;51.202;0.278;2024-01-10T08:32:31;102501.98;;;18.84;31.93
77975;BME280;67164;51.202;0.278;2024-01-10T08:34:57;102509.71;;;18.69;32.11
77975;BME280;67164;51.202;0.278;2024-01-10T08:37:22;102506.37;;;19.12;31.84
77975;BME280;67164;51.202;0.278;2024-01-10T08:39:53;102507.93;;;18.84;31.79
77975;BME280;67164;51.202;0.278;2024-01-10T08:42:14;102510.26;;;19.21;31.26
77975;BME280;67164;51.202;0.278;2024-01-10T08:44:40;102512.75;;;18.79;31.75
77975;BME280;67164;51.202;0.278;2024-01-10T08:47:05;102510.36;;;19.03;31.49
77975;BME280;67164;51.202;0.278;2024-01-10T08:49:31;102510.87;;;18.96;31.56
77975;BME280;67164;51.202;0.278;2024-01-10T08:51:57;102508.15;;;18.76;31.78
77975;BME280;67164;51.202;0.278;2024-01-10T08:54:23;102507.98;;;19.14;31.46
77975;BME280;67164;51.202;0.278;2024-01-10T08:56:49;102507.85;;;19.12;31.62
77975;BME280;67164;51.202;0.278;2024-01-10T08:59:15;102508.50;;;19.01;31.80
77975;BME280;67164;51.202;0.278;2024-01-10T09:01:40;102506.02;;;19.39;31.53
77975;BME280;67164;51.202;0.278;2024-01-10T09:04:06;102508.08;;;18.90;32.06
77975;BME280;67164;51.202;0.278;2024-01-10T09:06:32;102502.08;;;18.90;31.97
77975;BME280;67164;51.202;0.278;2024-01-10T09:08:58;102503.55;;;19.17;32.20
77975;BME280;67164;51.202;0.278;2024-01-10T09:11:23;102506.30;;;19.39;31.95
77975;BME280;67164;51.202;0.278;2024-01-10T09:13:49;102506.41;;;19.05;32.01
77975;BME280;67164;51.202;0.278;2024-01-10T09:16:16;102502.36;;;18.75;31.39
77975;BME280;67164;51.202;0.278;2024-01-10T09:18:41;102499.88;;;19.20;30.71
77975;BME280;67164;51.202;0.278;2024-01-10T09:21:07;102504.32;;;18.86;31.13
77975;BME280;67164;51.202;0.278;2024-01-10T09:23:33;102505.56;;;19.03;30.98
77975;BME280;67164;51.202;0.278;2024-01-10T09:25:58;102505.38;;;19.01;31.11
77975;BME280;67164;51.202;0.278;2024-01-10T09:28:23;102507.74;;;18.94;31.34
77975;BME280;67164;51.202;0.278;2024-01-10T09:30:49;102509.09;;;18.77;31.51
77975;BME280;67164;51.202;0.278;2024-01-10T09:33:14;102510.27;;;19.70;31.47
77975;BME280;67164;51.202;0.278;2024-01-10T09:35:40;102512.84;;;18.84;31.63
77975;BME280;67164;51.202;0.278;2024-01-10T09:38:06;102511.09;;;19.13;31.64
77975;BME280;67164;51.202;0.278;2024-01-10T09:40:31;102509.78;;;19.03;31.75
77975;BME280;67164;51.202;0.278;2024-01-10T09:42:57;102516.06;;;18.80;31.81
77975;BME280;67164;51.202;0.278;2024-01-10T09:45:23;102514.18;;;19.37;31.53
77975;BME280;67164;51.202;0.278;2024-01-10T09:47:51;102515.08;;;19.18;31.68
77975;BME280;67164;51.202;0.278;2024-01-10T09:50:15;102518.20;;;19.21;31.67
77975;BME280;67164;51.202;0.278;2024-01-10T09:52:46;102516.16;;;19.34;31.59
77975;BME280;67164;51.202;0.278;2024-01-10T09:55:07;102517.35;;;19.39;31.47
77975;BME280;67164;51.202;0.278;2024-01-10T09:57:32;102520.12;;;19.47;31.60
77975;BME280;67164;51.202;0.278;2024-01-10T09:59:58;102520.86;;;19.18;31.71
77975;BME280;67164;51.202;0.278;2024-01-10T10:02:24;102522.70;;;19.24;31.56
77975;BME280;67164;51.202;0.278;2024-01-10T10:04:55;102525.39;;;19.31;31.49
77975;BME280;67164;51.202;0.278;2024-01-10T10:07:15;102526.69;;;19.35;31.45
77975;BME280;67164;51.202;0.278;2024-01-10T10:09:41;102523.81;;;19.33;31.44
77975;BME280;67164;51.202;0.278;2024-01-10T10:12:07;102527.47;;;19.38;31.44
77975;BME280;67164;51.202;0.278;2024-01-10T10:14:32;102525.13;;;19.51;31.38
77975;BME280;67164;51.202;0.278;2024-01-10T10:19:24;102529.23;;;19.53;31.34
77975;BME280;67164;51.202;0.278;2024-01-10T10:21:50;102529.69;;;19.28;31.41
77975;BME280;67164;51.202;0.278;2024-01-10T10:24:16;102524.18;;;19.33;31.35
77975;BME280;67164;51.202;0.278;2024-01-10T10:26:41;102526.63;;;19.29;31.43
77975;BME280;67164;51.202;0.278;2024-01-10T10:29:07;102524.90;;;19.29;31.39
77975;BME280;67164;51.202;0.278;2024-01-10T10:31:33;102520.68;;;19.33;31.46
77975;BME280;67164;51.202;0.278;2024-01-10T10:34:01;102525.25;;;19.79;31.88
77975;BME280;67164;51.202;0.278;2024-01-10T10:36:25;102523.53;;;19.81;31.90
77975;BME280;67164;51.202;0.278;2024-01-10T10:38:50;102520.36;;;19.78;31.80
77975;BME280;67164;51.202;0.278;2024-01-10T10:41:18;102516.23;;;20.30;31.44
77975;BME280;67164;51.202;0.278;2024-01-10T10:43:42;102513.98;;;20.43;31.44
77975;BME280;67164;51.202;0.278;2024-01-10T10:46:09;102509.13;;;20.68;31.24
77975;BME280;67164;51.202;0.278;2024-01-10T10:48:35;102506.84;;;20.87;31.12
77975;BME280;67164;51.202;0.278;2024-01-10T10:51:05;102504.27;;;20.95;31.07
77975;BME280;67164;51.202;0.278;2024-01-10T10:53:26;102509.90;;;21.21;30.92
77975;BME280;67164;51.202;0.278;2024-01-10T10:55:52;102509.13;;;21.30;30.73
77975;BME280;67164;51.202;0.278;2024-01-10T10:58:17;102501.99;;;21.47;30.62
77975;BME280;67164;51.202;0.278;2024-01-10T11:00:43;102501.20;;;21.63;30.53
77975;BME280;67164;51.202;0.278;2024-01-10T11:03:10;102498.36;;;21.64;30.53
77975;BME280;67164;51.202;0.278;2024-01-10T11:05:35;102496.88;;;21.90;30.38
77975;BME280;67164;51.202;0.278;2024-01-10T11:08:02;102495.07;;;22.04;30.29
77975;BME280;67164;51.202;0.278;2024-01-10T11:10:28;102491.12;;;21.86;30.23
77975;BME280;67164;51.202;0.278;2024-01-10T11:13:07;102484.87;;;22.16;30.03
77975;BME280;67164;51.202;0.278;2024-01-10T11:15:29;102481.04;;;22.30;29.91
77975;BME280;67164;51.202;0.278;2024-01-10T11:17:56;102481.31;;;22.50;29.77
77975;BME280;67164;51.202;0.278;2024-01-10T11:20:14;102481.43;;;22.47;29.76
77975;BME280;67164;51.202;0.278;2024-01-10T11:22:46;102474.16;;;22.17;29.65
77975;BME280;67164;51.202;0.278;2024-01-10T11:25:01;102468.20;;;22.88;29.53
77975;BME280;67164;51.202;0.278;2024-01-10T11:27:27;102473.21;;;22.33;29.59
77975;BME280;67164;51.202;0.278;2024-01-10T11:29:52;102472.96;;;22.81;29.74
77975;BME280;67164;51.202;0.278;2024-01-10T11:32:22;102469.01;;;22.73;29.38
77975;BME280;67164;51.202;0.278;2024-01-10T11:34:54;102463.27;;;22.95;29.09
77975;BME280;67164;51.202;0.278;2024-01-10T11:37:10;102462.36;;;22.89;29.12
77975;BME280;67164;51.202;0.278;2024-01-10T11:39:36;102463.15;;;22.75;29.15
77975;BME280;67164;51.202;0.278;2024-01-10T11:42:01;102465.77;;;23.15;29.13
77975;BME280;67164;51.202;0.278;2024-01-10T11:44:29;102465.01;;;23.28;29.00
77975;BME280;67164;51.202;0.278;2024-01-10T11:46:54;102465.33;;;22.93;29.09
77975;BME280;67164;51.202;0.278;2024-01-10T11:49:20;102458.44;;;23.16;28.98
77975;BME280;67164;51.202;0.278;2024-01-10T11:51:46;102455.03;;;23.29;28.88
77975;BME280;67164;51.202;0.278;2024-01-10T11:54:10;102454.41;;;23.56;28.74
77975;BME280;67164;51.202;0.278;2024-01-10T11:56:39;102450.79;;;23.56;28.74
77975;BME280;67164;51.202;0.278;2024-01-10T11:59:03;102447.99;;;23.66;28.65
77975;BME280;67164;51.202;0.278;2024-01-10T12:01:28;102441.92;;;23.70;28.64
77975;BME280;67164;51.202;0.278;2024-01-10T12:03:56;102437.68;;;23.85;28.55
77975;BME280;67164;51.202;0.278;2024-01-10T12:06:20;102437.91;;;23.92;28.42
77975;BME280;67164;51.202;0.278;2024-01-10T12:08:45;102432.18;;;24.02;28.29
77975;BME280;67164;51.202;0.278;2024-01-10T12:11:10;102427.45;;;23.82;28.41
77975;BME280;67164;51.202;0.278;2024-01-10T12:13:36;102429.72;;;23.79;28.41
77975;BME280;67164;51.202;0.278;2024-01-10T12:16:02;102426.91;;;24.06;28.37
77975;BME280;67164;51.202;0.278;2024-01-10T12:18:27;102431.03;;;23.95;28.31
77975;BME280;67164;51.202;0.278;2024-01-10T12:20:53;102423.84;;;23.77;28.25
77975;BME280;67164;51.202;0.278;2024-01-10T12:23:19;102420.36;;;23.75;28.22
77975;BME280;67164;51.202;0.278;2024-01-10T12:25:45;102418.36;;;24.22;28.06
77975;BME280;67164;51.202;0.278;2024-01-10T12:28:15;102417.09;;;24.25;28.05
77975;BME280;67164;51.202;0.278;2024-01-10T12:30:36;102417.06;;;24.15;27.96
77975;BME280;67164;51.202;0.278;2024-01-10T12:33:03;102412.28;;;24.04;27.97
77975;BME280;67164;51.202;0.278;2024-01-10T12:35:28;102415.44;;;24.15;27.94
77975;BME280;67164;51.202;0.278;2024-01-10T12:37:54;102407.62;;;24.34;27.81
77975;BME280;67164;51.202;0.278;2024-01-10T12:40:19;102409.02;;;24.24;27.79
77975;BME280;67164;51.202;0.278;2024-01-10T12:42:45;102401.76;;;24.40;27.66
77975;BME280;67164;51.202;0.278;2024-01-10T12:45:21;102398.64;;;24.36;27.61